Terminal Aerodrome Forecast
Issued by NWS La Crosse, WI

Home | Current Version | Previous Version | Text Only | Print | Product List | Glossary On
Versions: 1 2 3 4 5 6 7 8 9 10 11 12 13 14 15 16 17 18 19 20 21 22 23 24 25 26 27 28 29 30 31 32 33 34 35 36 37 38
000
FTUS43 KARX 302026 AAA
TAFLSE
TAF AMD
KLSE 302026Z 3020/3118 31007KT P6SM SCT050
     FM302300 31007KT P6SM VCSH BKN050
     FM310300 VRB04KT P6SM SCT050
     FM310900 15004KT P6SM BCFG SCT006
     FM311315 24006KT P6SM FEW050=

USA.gov is the U.S. government's official web portal to all federal, state and local government web resources and services.